sensor_id;sensor_type;location;lat;lon;timestamp;pressure;altitude;pressure_sealevel;temperature;humidity
23473;BME280;11909;52.516;13.564;2024-01-30T00:02:22;102319.75;;;1.39;100.00
23473;BME280;11909;52.516;13.564;2024-01-30T00:04:50;102321.63;;;1.38;100.00
23473;BME280;11909;52.516;13.564;2024-01-30T00:07:18;102310.13;;;1.36;100.00
23473;BME280;11909;52.516;13.564;2024-01-30T00:09:46;102326.06;;;1.31;100.00
23473;BME280;11909;52.516;13.564;2024-01-30T00:12:15;102315.94;;;1.25;100.00
23473;BME280;11909;52.516;13.564;2024-01-30T00:14:43;102319.38;;;1.19;100.00
23473;BME280;11909;52.516;13.564;2024-01-30T00:17:12;102320.22;;;1.19;100.00
23473;BME280;11909;52.516;13.564;2024-01-30T00:19:40;102311.78;;;1.14;100.00
23473;BME280;11909;52.516;13.564;2024-01-30T00:22:08;102317.19;;;1.14;100.00
23473;BME280;11909;52.516;13.564;2024-01-30T00:24:36;102321.94;;;1.12;100.00
23473;BME280;11909;52.516;13.564;2024-01-30T00:27:04;102319.78;;;1.07;100.00
23473;BME280;11909;52.516;13.564;2024-01-30T00:29:32;102322.31;;;1.09;100.00
23473;BME280;11909;52.516;13.564;2024-01-30T00:32:00;102322.50;;;1.07;100.00
23473;BME280;11909;52.516;13.564;2024-01-30T00:34:30;102320.63;;;1.08;100.00
23473;BME280;11909;52.516;13.564;2024-01-30T00:36:58;102315.03;;;1.09;100.00
23473;BME280;11909;52.516;13.564;2024-01-30T00:39:25;102316.22;;;1.07;100.00
23473;BME280;11909;52.516;13.564;2024-01-30T00:41:53;102313.03;;;1.03;100.00
23473;BME280;11909;52.516;13.564;2024-01-30T00:44:21;102310.53;;;1.02;100.00
23473;BME280;11909;52.516;13.564;2024-01-30T00:46:49;102316.28;;;0.98;100.00
23473;BME280;11909;52.516;13.564;2024-01-30T00:49:17;102315.44;;;0.98;100.00
23473;BME280;11909;52.516;13.564;2024-01-30T00:51:46;102319.00;;;0.98;100.00
23473;BME280;11909;52.516;13.564;2024-01-30T00:54:14;102318.50;;;0.95;100.00
23473;BME280;11909;52.516;13.564;2024-01-30T00:56:42;102310.56;;;0.93;100.00
23473;BME280;11909;52.516;13.564;2024-01-30T00:59:11;102318.69;;;0.93;100.00
23473;BME280;11909;52.516;13.564;2024-01-30T01:01:38;102319.50;;;0.94;100.00
23473;BME280;11909;52.516;13.564;2024-01-30T01:04:07;102312.44;;;0.93;100.00
23473;BME280;11909;52.516;13.564;2024-01-30T01:06:34;102314.09;;;0.94;100.00
23473;BME280;11909;52.516;13.564;2024-01-30T01:09:04;102320.91;;;0.90;100.00
23473;BME280;11909;52.516;13.564;2024-01-30T01:11:32;102315.19;;;0.84;100.00
23473;BME280;11909;52.516;13.564;2024-01-30T01:14:00;102313.50;;;0.83;100.00
23473;BME280;11909;52.516;13.564;2024-01-30T01:16:28;102314.00;;;0.79;100.00
23473;BME280;11909;52.516;13.564;2024-01-30T01:18:55;102318.25;;;0.73;100.00
23473;BME280;11909;52.516;13.564;2024-01-30T01:21:23;102308.81;;;0.69;100.00
23473;BME280;11909;52.516;13.564;2024-01-30T01:24:13;102303.94;;;0.64;100.00
23473;BME280;11909;52.516;13.564;2024-01-30T01:26:41;102303.13;;;0.64;100.00
23473;BME280;11909;52.516;13.564;2024-01-30T01:29:09;102304.13;;;0.63;100.00
23473;BME280;11909;52.516;13.564;2024-01-30T01:31:38;102307.66;;;0.63;100.00
23473;BME280;11909;52.516;13.564;2024-01-30T01:34:10;102299.38;;;0.65;100.00
23473;BME280;11909;52.516;13.564;2024-01-30T01:36:39;102309.69;;;0.61;100.00
23473;BME280;11909;52.516;13.564;2024-01-30T01:39:07;102299.09;;;0.60;100.00
23473;BME280;11909;52.516;13.564;2024-01-30T01:41:36;102304.66;;;0.58;100.00
23473;BME280;11909;52.516;13.564;2024-01-30T01:44:04;102301.59;;;0.61;100.00
23473;BME280;11909;52.516;13.564;2024-01-30T01:46:33;102297.88;;;0.62;100.00
23473;BME280;11909;52.516;13.564;2024-01-30T01:49:02;102299.75;;;0.62;100.00
23473;BME280;11909;52.516;13.564;2024-01-30T01:51:34;102298.06;;;0.61;100.00
23473;BME280;11909;52.516;13.564;2024-01-30T01:54:04;102299.41;;;0.56;100.00
23473;BME280;11909;52.516;13.564;2024-01-30T01:56:33;102300.25;;;0.57;100.00
23473;BME280;11909;52.516;13.564;2024-01-30T01:59:05;102303.47;;;0.61;100.00
23473;BME280;11909;52.516;13.564;2024-01-30T02:01:34;102302.66;;;0.52;100.00
23473;BME280;11909;52.516;13.564;2024-01-30T02:04:02;102306.19;;;0.52;100.00
23473;BME280;11909;52.516;13.564;2024-01-30T02:06:31;102299.09;;;0.51;100.00
23473;BME280;11909;52.516;13.564;2024-01-30T02:08:59;102303.47;;;0.52;100.00
23473;BME280;11909;52.516;13.564;2024-01-30T02:11:28;102297.59;;;0.49;100.00
23473;BME280;11909;52.516;13.564;2024-01-30T02:13:56;102298.16;;;0.36;100.00
23473;BME280;11909;52.516;13.564;2024-01-30T02:16:25;102292.91;;;0.34;100.00
23473;BME280;11909;52.516;13.564;2024-01-30T02:18:54;102298.66;;;0.31;100.00
23473;BME280;11909;52.516;13.564;2024-01-30T02:21:23;102300.84;;;0.27;100.00
23473;BME280;11909;52.516;13.564;2024-01-30T02:23:52;102306.94;;;0.30;100.00
23473;BME280;11909;52.516;13.564;2024-01-30T02:26:21;102294.63;;;0.27;100.00
23473;BME280;11909;52.516;13.564;2024-01-30T02:28:50;102299.19;;;0.26;100.00
23473;BME280;11909;52.516;13.564;2024-01-30T02:31:18;102293.97;;;0.25;100.00
23473;BME280;11909;52.516;13.564;2024-01-30T02:33:45;102293.25;;;0.23;100.00
23473;BME280;11909;52.516;13.564;2024-01-30T02:36:14;102291.59;;;0.22;100.00
23473;BME280;11909;52.516;13.564;2024-01-30T02:38:43;102290.91;;;0.20;100.00
23473;BME280;11909;52.516;13.564;2024-01-30T02:41:13;102292.59;;;0.21;100.00
23473;BME280;11909;52.516;13.564;2024-01-30T02:43:41;102289.22;;;0.19;100.00
23473;BME280;11909;52.516;13.564;2024-01-30T02:46:09;102290.44;;;0.16;100.00
23473;BME280;11909;52.516;13.564;2024-01-30T02:48:37;102287.22;;;0.12;100.00
23473;BME280;11909;52.516;13.564;2024-01-30T02:51:06;102289.25;;;0.10;100.00
23473;BME280;11909;52.516;13.564;2024-01-30T02:53:34;102283.53;;;0.05;100.00
23473;BME280;11909;52.516;13.564;2024-01-30T02:56:04;102276.94;;;0.08;100.00
23473;BME280;11909;52.516;13.564;2024-01-30T02:58:36;102278.13;;;0.13;100.00
23473;BME280;11909;52.516;13.564;2024-01-30T03:01:04;102278.13;;;0.13;100.00
23473;BME280;11909;52.516;13.564;2024-01-30T03:03:32;102279.28;;;0.19;100.00
23473;BME280;11909;52.516;13.564;2024-01-30T03:06:02;102279.28;;;0.19;100.00
23473;BME280;11909;52.516;13.564;2024-01-30T03:08:29;102275.91;;;0.17;100.00
23473;BME280;11909;52.516;13.564;2024-01-30T03:10:57;102277.09;;;0.14;100.00
23473;BME280;11909;52.516;13.564;2024-01-30T03:13:26;102273.72;;;0.12;100.00
23473;BME280;11909;52.516;13.564;2024-01-30T03:15:54;102268.19;;;0.14;100.00
23473;BME280;11909;52.516;13.564;2024-01-30T03:18:22;102270.03;;;0.13;100.00
23473;BME280;11909;52.516;13.564;2024-01-30T03:20:50;102263.78;;;0.13;100.00
23473;BME280;11909;52.516;13.564;2024-01-30T03:23:18;102259.56;;;0.10;100.00
23473;BME280;11909;52.516;13.564;2024-01-30T03:25:46;102262.63;;;0.07;100.00
23473;BME280;11909;52.516;13.564;2024-01-30T03:28:14;102256.88;;;0.10;100.00
23473;BME280;11909;52.516;13.564;2024-01-30T03:30:43;102255.69;;;0.13;100.00
23473;BME280;11909;52.516;13.564;2024-01-30T03:33:11;102262.28;;;0.10;100.00
23473;BME280;11909;52.516;13.564;2024-01-30T03:35:39;102258.56;;;0.11;100.00
23473;BME280;11909;52.516;13.564;2024-01-30T03:38:07;102257.88;;;0.09;100.00
23473;BME280;11909;52.516;13.564;2024-01-30T03:40:35;102259.72;;;0.09;100.00
23473;BME280;11909;52.516;13.564;2024-01-30T03:43:03;102263.28;;;0.09;100.00
23473;BME280;11909;52.516;13.564;2024-01-30T03:45:32;102260.75;;;0.08;100.00
23473;BME280;11909;52.516;13.564;2024-01-30T03:48:02;102266.66;;;0.11;100.00
23473;BME280;11909;52.516;13.564;2024-01-30T03:50:30;102262.59;;;0.16;100.00
23473;BME280;11909;52.516;13.564;2024-01-30T03:52:57;102263.59;;;0.14;100.00
23473;BME280;11909;52.516;13.564;2024-01-30T03:55:25;102260.91;;;0.14;100.00
23473;BME280;11909;52.516;13.564;2024-01-30T03:57:53;102261.56;;;0.17;100.00
23473;BME280;11909;52.516;13.564;2024-01-30T04:00:21;102258.50;;;0.20;100.00
23473;BME280;11909;52.516;13.564;2024-01-30T04:02:49;102247.25;;;0.16;100.00
23473;BME280;11909;52.516;13.564;2024-01-30T04:05:19;102256.34;;;0.15;100.00
23473;BME280;11909;52.516;13.564;2024-01-30T04:07:47;102251.81;;;0.07;100.00
23473;BME280;11909;52.516;13.564;2024-01-30T04:10:15;102256.88;;;0.10;100.00
23473;BME280;11909;52.516;13.564;2024-01-30T04:12:45;102259.72;;;0.09;100.00
23473;BME280;11909;52.516;13.564;2024-01-30T04:15:12;102254.31;;;0.09;100.00
23473;BME280;11909;52.516;13.564;2024-01-30T04:17:41;102257.53;;;0.12;100.00
23473;BME280;11909;52.516;13.564;2024-01-30T04:20:13;102255.69;;;0.13;100.00
23473;BME280;11909;52.516;13.564;2024-01-30T04:22:44;102252.81;;;0.14;100.00
23473;BME280;11909;52.516;13.564;2024-01-30T04:25:13;102263.09;;;0.19;100.00
23473;BME280;11909;52.516;13.564;2024-01-30T04:27:41;102259.53;;;0.19;100.00
23473;BME280;11909;52.516;13.564;2024-01-30T04:30:10;102258.72;;;0.18;100.00
23473;BME280;11909;52.516;13.564;2024-01-30T04:32:38;102261.41;;;0.18;100.00
23473;BME280;11909;52.516;13.564;2024-01-30T04:35:07;102255.00;;;0.19;100.00
23473;BME280;11909;52.516;13.564;2024-01-30T04:37:37;102266.97;;;0.17;100.00
23473;BME280;11909;52.516;13.564;2024-01-30T04:40:07;102252.63;;;0.16;100.00
23473;BME280;11909;52.516;13.564;2024-01-30T04:42:36;102250.59;;;0.18;100.00
23473;BME280;11909;52.516;13.564;2024-01-30T04:45:06;102246.53;;;0.22;100.00
23473;BME280;11909;52.516;13.564;2024-01-30T04:47:34;102241.63;;;0.26;100.00
23473;BME280;11909;52.516;13.564;2024-01-30T04:50:02;102241.09;;;0.31;100.00
23473;BME280;11909;52.516;13.564;2024-01-30T04:52:31;102239.56;;;0.36;100.00
23473;BME280;11909;52.516;13.564;2024-01-30T04:54:59;102246.47;;;0.39;100.00
23473;BME280;11909;52.516;13.564;2024-01-30T04:57:28;102238.38;;;0.39;100.00
23473;BME280;11909;52.516;13.564;2024-01-30T04:59:57;102236.50;;;0.39;100.00
23473;BME280;11909;52.516;13.564;2024-01-30T05:02:25;102240.72;;;0.42;100.00
23473;BME280;11909;52.516;13.564;2024-01-30T05:04:53;102243.78;;;0.39;100.00
23473;BME280;11909;52.516;13.564;2024-01-30T05:07:21;102244.31;;;0.34;100.00
23473;BME280;11909;52.516;13.564;2024-01-30T05:09:49;102242.44;;;0.35;100.00
23473;BME280;11909;52.516;13.564;2024-01-30T05:12:19;102240.75;;;0.34;100.00
23473;BME280;11909;52.516;13.564;2024-01-30T05:14:48;102244.97;;;0.36;100.00
23473;BME280;11909;52.516;13.564;2024-01-30T05:17:16;102250.38;;;0.36;100.00
23473;BME280;11909;52.516;13.564;2024-01-30T05:19:44;102242.63;;;0.33;100.00
23473;BME280;11909;52.516;13.564;2024-01-30T05:22:12;102242.63;;;0.33;100.00
23473;BME280;11909;52.516;13.564;2024-01-30T05:24:42;102244.13;;;0.36;100.00
23473;BME280;11909;52.516;13.564;2024-01-30T05:27:10;102235.69;;;0.39;100.00
23473;BME280;11909;52.516;13.564;2024-01-30T05:29:39;102246.28;;;0.40;100.00
23473;BME280;11909;52.516;13.564;2024-01-30T05:32:09;102244.75;;;0.46;100.00
23473;BME280;11909;52.516;13.564;2024-01-30T05:34:37;102252.34;;;0.51;100.00
23473;BME280;11909;52.516;13.564;2024-01-30T05:37:05;102250.31;;;0.53;100.00
23473;BME280;11909;52.516;13.564;2024-01-30T05:39:33;102248.34;;;0.70;100.00
23473;BME280;11909;52.516;13.564;2024-01-30T05:42:02;102244.84;;;0.61;100.00
23473;BME280;11909;52.516;13.564;2024-01-30T05:44:30;102241.97;;;0.63;100.00
23473;BME280;11909;52.516;13.564;2024-01-30T05:46:58;102242.34;;;0.60;100.00
23473;BME280;11909;52.516;13.564;2024-01-30T05:49:27;102238.06;;;0.65;100.00
23473;BME280;11909;52.516;13.564;2024-01-30T05:51:55;102237.03;;;0.66;100.00
23473;BME280;11909;52.516;13.564;2024-01-30T05:54:24;102239.22;;;0.71;100.00
23473;BME280;11909;52.516;13.564;2024-01-30T05:56:51;102235.38;;;0.65;100.00
23473;BME280;11909;52.516;13.564;2024-01-30T05:59:40;102239.09;;;0.64;100.00
23473;BME280;11909;52.516;13.564;2024-01-30T06:02:07;102234.41;;;0.58;100.00
23473;BME280;11909;52.516;13.564;2024-01-30T06:04:37;102233.44;;;0.51;100.00
23473;BME280;11909;52.516;13.564;2024-01-30T06:07:05;102238.84;;;0.51;100.00
23473;BME280;11909;52.516;13.564;2024-01-30T06:09:34;102231.75;;;0.50;100.00
23473;BME280;11909;52.516;13.564;2024-01-30T06:12:03;102230.22;;;0.47;100.00
23473;BME280;11909;52.516;13.564;2024-01-30T06:14:32;102229.56;;;0.45;100.00
23473;BME280;11909;52.516;13.564;2024-01-30T06:17:00;102238.50;;;0.46;100.00
23473;BME280;11909;52.516;13.564;2024-01-30T06:19:28;102234.97;;;0.45;100.00
23473;BME280;11909;52.516;13.564;2024-01-30T06:22:00;102236.50;;;0.39;100.00
23473;BME280;11909;52.516;13.564;2024-01-30T06:24:31;102244.13;;;0.36;100.00
23473;BME280;11909;52.516;13.564;2024-01-30T06:27:00;102233.50;;;0.34;100.00
23473;BME280;11909;52.516;13.564;2024-01-30T06:29:27;102234.69;;;0.32;100.00
23473;BME280;11909;52.516;13.564;2024-01-30T06:31:56;102223.72;;;0.33;100.00
23473;BME280;11909;52.516;13.564;2024-01-30T06:34:24;102235.84;;;0.37;100.00
23473;BME280;11909;52.516;13.564;2024-01-30T06:36:52;102232.78;;;0.40;100.00
23473;BME280;11909;52.516;13.564;2024-01-30T06:39:22;102233.28;;;0.44;100.00
23473;BME280;11909;52.516;13.564;2024-01-30T06:41:50;102234.97;;;0.45;100.00
23473;BME280;11909;52.516;13.564;2024-01-30T06:44:18;102232.44;;;0.43;100.00
23473;BME280;11909;52.516;13.564;2024-01-30T06:46:46;102231.59;;;0.43;100.00
23473;BME280;11909;52.516;13.564;2024-01-30T06:49:14;102232.63;;;0.42;100.00
23473;BME280;11909;52.516;13.564;2024-01-30T06:51:42;102227.38;;;0.40;100.00
23473;BME280;11909;52.516;13.564;2024-01-30T06:54:09;102229.06;;;0.41;100.00
23473;BME280;11909;52.516;13.564;2024-01-30T06:56:39;102222.47;;;0.44;100.00
23473;BME280;11909;52.516;13.564;2024-01-30T06:59:07;102227.69;;;0.46;100.00
23473;BME280;11909;52.516;13.564;2024-01-30T07:01:35;102224.00;;;0.47;100.00
23473;BME280;11909;52.516;13.564;2024-01-30T07:04:03;102229.22;;;0.48;100.00
23473;BME280;11909;52.516;13.564;2024-01-30T07:06:31;102227.53;;;0.47;100.00
23473;BME280;11909;52.516;13.564;2024-01-30T07:08:59;102225.00;;;0.46;100.00
23473;BME280;11909;52.516;13.564;2024-01-30T07:11:27;102229.41;;;0.47;100.00
23473;BME280;11909;52.516;13.564;2024-01-30T07:13:57;102221.78;;;0.50;100.00
23473;BME280;11909;52.516;13.564;2024-01-30T07:16:25;102218.72;;;0.53;100.00
23473;BME280;11909;52.516;13.564;2024-01-30T07:18:52;102221.78;;;0.50;100.00
23473;BME280;11909;52.516;13.564;2024-01-30T07:21:20;102219.91;;;0.51;100.00
23473;BME280;11909;52.516;13.564;2024-01-30T07:23:54;102222.78;;;0.49;100.00
23473;BME280;11909;52.516;13.564;2024-01-30T07:26:21;102220.94;;;0.50;100.00
23473;BME280;11909;52.516;13.564;2024-01-30T07:28:50;102225.50;;;0.49;100.00
23473;BME280;11909;52.516;13.564;2024-01-30T07:31:19;102215.53;;;0.50;100.00
23473;BME280;11909;52.516;13.564;2024-01-30T07:33:49;102229.72;;;0.52;100.00
23473;BME280;11909;52.516;13.564;2024-01-30T07:36:17;102222.78;;;0.49;100.00
23473;BME280;11909;52.516;13.564;2024-01-30T07:38:45;102220.94;;;0.50;100.00
23473;BME280;11909;52.516;13.564;2024-01-30T07:41:14;102217.16;;;0.59;100.00
23473;BME280;11909;52.516;13.564;2024-01-30T07:43:44;102217.66;;;0.63;100.00
23473;BME280;11909;52.516;13.564;2024-01-30T07:46:12;102210.59;;;0.62;100.00
23473;BME280;11909;52.516;13.564;2024-01-30T07:48:41;102213.75;;;0.65;100.00
23473;BME280;11909;52.516;13.564;2024-01-30T07:51:09;102209.50;;;0.71;100.00
23473;BME280;11909;52.516;13.564;2024-01-30T07:53:37;102215.69;;;0.80;100.00
23473;BME280;11909;52.516;13.564;2024-01-30T07:56:05;102209.28;;;0.81;100.00
23473;BME280;11909;52.516;13.564;2024-01-30T07:58:33;102205.19;;;0.85;100.00
23473;BME280;11909;52.516;13.564;2024-01-30T08:01:04;102207.34;;;0.90;100.00
23473;BME280;11909;52.516;13.564;2024-01-30T08:03:32;102206.75;;;1.03;100.00
23473;BME280;11909;52.516;13.564;2024-01-30T08:06:02;102205.06;;;1.02;100.00
23473;BME280;11909;52.516;13.564;2024-01-30T08:08:30;102207.50;;;0.96;100.00
23473;BME280;11909;52.516;13.564;2024-01-30T08:10:58;102207.28;;;0.98;100.00
23473;BME280;11909;52.516;13.564;2024-01-30T08:13:27;102202.00;;;1.05;100.00
23473;BME280;11909;52.516;13.564;2024-01-30T08:15:55;102202.19;;;1.03;100.00
23473;BME280;11909;52.516;13.564;2024-01-30T08:18:23;102204.72;;;1.05;100.00
23473;BME280;11909;52.516;13.564;2024-01-30T08:20:51;102202.44;;;1.17;100.00
23473;BME280;11909;52.516;13.564;2024-01-30T08:23:20;102207.47;;;1.20;100.00
23473;BME280;11909;52.516;13.564;2024-01-30T08:25:48;102209.09;;;1.29;100.00
23473;BME280;11909;52.516;13.564;2024-01-30T08:28:15;102212.63;;;1.29;100.00
23473;BME280;11909;52.516;13.564;2024-01-30T08:30:46;102205.28;;;1.38;100.00
23473;BME280;11909;52.516;13.564;2024-01-30T08:33:14;102213.31;;;1.47;100.00
23473;BME280;11909;52.516;13.564;2024-01-30T08:35:43;102207.72;;;1.48;100.00
23473;BME280;11909;52.516;13.564;2024-01-30T08:38:10;102205.44;;;1.60;100.00
23473;BME280;11909;52.516;13.564;2024-01-30T08:40:40;102201.81;;;1.68;100.00
23473;BME280;11909;52.516;13.564;2024-01-30T08:43:08;102201.91;;;1.75;100.00
23473;BME280;11909;52.516;13.564;2024-01-30T08:45:37;102199.75;;;1.70;100.00
23473;BME280;11909;52.516;13.564;2024-01-30T08:48:05;102198.56;;;1.88;100.00
23473;BME280;11909;52.516;13.564;2024-01-30T08:50:34;102200.63;;;1.85;100.00
23473;BME280;11909;52.516;13.564;2024-01-30T08:53:02;102197.81;;;1.94;100.00
23473;BME280;11909;52.516;13.564;2024-01-30T08:55:30;102192.19;;;1.95;100.00
23473;BME280;11909;52.516;13.564;2024-01-30T08:58:00;102205.00;;;2.02;100.00
23473;BME280;11909;52.516;13.564;2024-01-30T09:00:30;102200.69;;;2.07;100.00
23473;BME280;11909;52.516;13.564;2024-01-30T09:02:58;102209.09;;;2.12;100.00
23473;BME280;11909;52.516;13.564;2024-01-30T09:05:26;102201.72;;;2.21;100.00
23473;BME280;11909;52.516;13.564;2024-01-30T09:07:54;102201.59;;;2.29;100.00
23473;BME280;11909;52.516;13.564;2024-01-30T09:10:22;102198.59;;;2.39;100.00
23473;BME280;11909;52.516;13.564;2024-01-30T09:12:50;102203.16;;;2.54;100.00
23473;BME280;11909;52.516;13.564;2024-01-30T09:15:19;102204.84;;;2.55;100.00
23473;BME280;11909;52.516;13.564;2024-01-30T09:17:50;102210.53;;;2.60;100.00
23473;BME280;11909;52.516;13.564;2024-01-30T09:20:18;102206.72;;;2.76;100.00
23473;BME280;11909;52.516;13.564;2024-01-30T09:22:46;102213.84;;;2.77;100.00
23473;BME280;11909;52.516;13.564;2024-01-30T09:25:15;102217.22;;;3.01;100.00
23473;BME280;11909;52.516;13.564;2024-01-30T09:27:43;102224.53;;;3.00;100.00
23473;BME280;11909;52.516;13.564;2024-01-30T09:30:11;102218.31;;;3.07;100.00
23473;BME280;11909;52.516;13.564;2024-01-30T09:32:41;102217.34;;;3.14;100.00
23473;BME280;11909;52.516;13.564;2024-01-30T09:35:10;102216.50;;;3.14;100.00
23473;BME280;11909;52.516;13.564;2024-01-30T09:37:38;102220.97;;;3.22;100.00
23473;BME280;11909;52.516;13.564;2024-01-30T09:40:08;102218.94;;;3.30;100.00
23473;BME280;11909;52.516;13.564;2024-01-30T09:42:36;102218.56;;;3.34;100.00
23473;BME280;11909;52.516;13.564;2024-01-30T09:45:05;102219.19;;;3.36;100.00
23473;BME280;11909;52.516;13.564;2024-01-30T09:47:38;102217.59;;;3.41;100.00
23473;BME280;11909;52.516;13.564;2024-01-30T09:50:09;102207.66;;;3.55;100.00
23473;BME280;11909;52.516;13.564;2024-01-30T09:52:38;102217.97;;;3.67;100.00
23473;BME280;11909;52.516;13.564;2024-01-30T09:55:06;102215.31;;;3.73;100.00
23473;BME280;11909;52.516;13.564;2024-01-30T09:57:35;102212.88;;;3.85;100.00
23473;BME280;11909;52.516;13.564;2024-01-30T10:00:04;102218.19;;;3.94;100.00
23473;BME280;11909;52.516;13.564;2024-01-30T10:02:34;102220.50;;;3.97;100.00
23473;BME280;11909;52.516;13.564;2024-01-30T10:05:02;102220.91;;;4.00;100.00
23473;BME280;11909;52.516;13.564;2024-01-30T10:07:32;102218.06;;;4.09;100.00
23473;BME280;11909;52.516;13.564;2024-01-30T10:10:01;102217.47;;;4.20;100.00
23473;BME280;11909;52.516;13.564;2024-01-30T10:12:29;102221.41;;;4.11;100.00
23473;BME280;11909;52.516;13.564;2024-01-30T10:14:57;102203.69;;;4.22;99.85
23473;BME280;11909;52.516;13.564;2024-01-30T10:17:25;102213.16;;;4.33;98.90
23473;BME280;11909;52.516;13.564;2024-01-30T10:19:59;102208.13;;;4.29;99.05
23473;BME280;11909;52.516;13.564;2024-01-30T10:22:28;102202.50;;;4.38;98.83
23473;BME280;11909;52.516;13.564;2024-01-30T10:24:58;102207.53;;;4.41;97.90
23473;BME280;11909;52.516;13.564;2024-01-30T10:27:31;102206.13;;;4.58;97.45
23473;BME280;11909;52.516;13.564;2024-01-30T10:29:59;102202.16;;;4.61;96.83
23473;BME280;11909;52.516;13.564;2024-01-30T10:32:27;102197.81;;;4.73;94.63
23473;BME280;11909;52.516;13.564;2024-01-30T10:34:55;102202.22;;;4.81;93.34
23473;BME280;11909;52.516;13.564;2024-01-30T10:37:25;102206.00;;;4.94;91.84
23473;BME280;11909;52.516;13.564;2024-01-30T10:39:53;102201.41;;;4.94;91.53
23473;BME280;11909;52.516;13.564;2024-01-30T10:42:26;102193.03;;;5.02;90.60
23473;BME280;11909;52.516;13.564;2024-01-30T10:45:00;102190.31;;;5.02;91.00
23473;BME280;11909;52.516;13.564;2024-01-30T10:47:34;102193.28;;;5.08;90.60
23473;BME280;11909;52.516;13.564;2024-01-30T10:50:03;102195.34;;;5.12;90.31
23473;BME280;11909;52.516;13.564;2024-01-30T10:52:31;102190.56;;;5.21;89.97
23473;BME280;11909;52.516;13.564;2024-01-30T10:55:00;102193.28;;;5.21;89.07
23473;BME280;11909;52.516;13.564;2024-01-30T10:57:34;102195.59;;;5.31;87.58
23473;BME280;11909;52.516;13.564;2024-01-30T11:00:06;102190.16;;;5.38;87.44
23473;BME280;11909;52.516;13.564;2024-01-30T11:02:38;102191.41;;;5.42;86.14
23473;BME280;11909;52.516;13.564;2024-01-30T11:05:08;102197.66;;;5.56;83.95
23473;BME280;11909;52.516;13.564;2024-01-30T11:07:36;102194.53;;;5.66;83.46
23473;BME280;11909;52.516;13.564;2024-01-30T11:10:07;102200.16;;;5.64;83.76
23473;BME280;11909;52.516;13.564;2024-01-30T11:12:40;102192.41;;;5.74;83.04
23473;BME280;11909;52.516;13.564;2024-01-30T11:15:12;102200.16;;;5.84;81.18
23473;BME280;11909;52.516;13.564;2024-01-30T11:17:44;102188.22;;;5.79;81.47
23473;BME280;11909;52.516;13.564;2024-01-30T11:20:15;102192.59;;;5.80;81.13
23473;BME280;11909;52.516;13.564;2024-01-30T11:22:45;102184.63;;;5.85;80.79
23473;BME280;11909;52.516;13.564;2024-01-30T11:25:14;102191.75;;;5.93;80.60
23473;BME280;11909;52.516;13.564;2024-01-30T11:27:44;102188.19;;;5.92;80.23
23473;BME280;11909;52.516;13.564;2024-01-30T11:30:21;102180.84;;;5.93;79.96
23473;BME280;11909;52.516;13.564;2024-01-30T11:33:01;102184.00;;;5.89;80.01
23473;BME280;11909;52.516;13.564;2024-01-30T11:35:32;102184.00;;;6.03;79.70
23473;BME280;11909;52.516;13.564;2024-01-30T11:38:01;102179.38;;;6.03;78.80
23473;BME280;11909;52.516;13.564;2024-01-30T11:40:31;102182.72;;;6.06;78.28
23473;BME280;11909;52.516;13.564;2024-01-30T11:43:02;102182.88;;;6.17;78.12
23473;BME280;11909;52.516;13.564;2024-01-30T11:45:32;102183.91;;;6.23;77.37
23473;BME280;11909;52.516;13.564;2024-01-30T11:48:00;102186.44;;;6.25;77.03
23473;BME280;11909;52.516;13.564;2024-01-30T11:50:30;102187.69;;;6.29;76.93
23473;BME280;11909;52.516;13.564;2024-01-30T11:52:59;102179.88;;;6.39;75.94
23473;BME280;11909;52.516;13.564;2024-01-30T11:55:28;102182.84;;;6.31;76.60
23473;BME280;11909;52.516;13.564;2024-01-30T11:58:02;102184.34;;;6.27;77.85
23473;BME280;11909;52.516;13.564;2024-01-30T12:00:31;102190.94;;;6.44;76.29
23473;BME280;11909;52.516;13.564;2024-01-30T12:03:01;102182.53;;;6.53;75.99
23473;BME280;11909;52.516;13.564;2024-01-30T12:05:30;102177.66;;;6.62;74.89
23473;BME280;11909;52.516;13.564;2024-01-30T12:07:58;102170.59;;;6.47;75.68
23473;BME280;11909;52.516;13.564;2024-01-30T12:10:28;102168.50;;;6.42;76.63
23473;BME280;11909;52.516;13.564;2024-01-30T12:12:57;102167.19;;;6.58;75.28
23473;BME280;11909;52.516;13.564;2024-01-30T12:15:27;102164.22;;;6.60;76.01
23473;BME280;11909;52.516;13.564;2024-01-30T12:18:03;102160.38;;;6.74;74.46
23473;BME280;11909;52.516;13.564;2024-01-30T12:20:31;102160.41;;;6.68;75.10
23473;BME280;11909;52.516;13.564;2024-01-30T12:23:00;102168.09;;;6.84;74.36
23473;BME280;11909;52.516;13.564;2024-01-30T12:25:28;102161.38;;;6.80;73.92
23473;BME280;11909;52.516;13.564;2024-01-30T12:27:57;102167.84;;;6.86;74.13
23473;BME280;11909;52.516;13.564;2024-01-30T12:30:27;102162.75;;;6.96;73.51
23473;BME280;11909;52.516;13.564;2024-01-30T12:32:55;102154.94;;;7.00;73.36
23473;BME280;11909;52.516;13.564;2024-01-30T12:35:24;102149.44;;;7.07;73.44
23473;BME280;11909;52.516;13.564;2024-01-30T12:37:55;102138.81;;;6.98;73.95
23473;BME280;11909;52.516;13.564;2024-01-30T12:40:24;102137.09;;;7.04;74.34
23473;BME280;11909;52.516;13.564;2024-01-30T12:42:53;102135.00;;;6.99;74.47
23473;BME280;11909;52.516;13.564;2024-01-30T12:45:21;102128.91;;;7.04;74.38
23473;BME280;11909;52.516;13.564;2024-01-30T12:47:51;102125.72;;;7.07;74.50
23473;BME280;11909;52.516;13.564;2024-01-30T12:50:19;102113.94;;;7.07;75.21
23473;BME280;11909;52.516;13.564;2024-01-30T12:52:48;102120.47;;;7.06;74.96